Volk Field Camp Douglas US
ICAO: KVOK
IATA: VOK
Category: Medium
Scheduled Services: No

Elevation: 912 ft
TransAlt. 18000 ft.

Airport Communications:
APP/DEP:135.25
CTAF:127.5
GND:121.9
HARDWOOD RANGE:132.025
SHEBOYGAN RANGE:26.04
PTD:37.22
TWR:127.5

KVOK Zoom In..

If you have problems with the map follow the link
https://www.worldairports.se/pages/airport.php?
ICAO=KVOK

Runways:

(A) RW 09 length 9000 ft width 150 ft
---- / hdg 89

(B) RW 27 length 9000 ft width 150 ft
ILS 108.50 / hdg 269

Location; KVOK
Day. 18 / Time. 02.11 Zulu
* Altimeter: 30.03
* Temperature: -07° c. -19.4°f.
* Wind from: 000° Speed 00 kn.
Dewpoint: -07° c.
Visibility: 4 Statute Miles.
Clouds: Overcast 2000 ft.
Conditions: Light Snow.Conditions: Mist.

KVOK 180211Z AUTO 00000KT 4SM -SN BR OVC020 M07/M07 A3003 RMK AO2 CIG 016V020 SLP188


Wind - Calm.

 
 
jpsmedia.com for Web Design worldairports.se 2019   terms of use